sensor_id;sensor_type;location;lat;lon;timestamp;temperature;humidity
6333;DHT22;3199;49.102;8.856;2022-10-16T00:01:46;16.20;99.90
6333;DHT22;3199;49.102;8.856;2022-10-16T00:04:12;16.10;99.90
6333;DHT22;3199;49.102;8.856;2022-10-16T00:06:38;16.10;99.90
6333;DHT22;3199;49.102;8.856;2022-10-16T00:09:04;16.10;99.90
6333;DHT22;3199;49.102;8.856;2022-10-16T00:11:32;16.10;99.90
6333;DHT22;3199;49.102;8.856;2022-10-16T00:14:07;16.10;99.90
6333;DHT22;3199;49.102;8.856;2022-10-16T00:16:34;16.10;99.90
6333;DHT22;3199;49.102;8.856;2022-10-16T00:19:00;16.10;99.90
6333;DHT22;3199;49.102;8.856;2022-10-16T00:21:28;16.10;99.90
6333;DHT22;3199;49.102;8.856;2022-10-16T00:23:56;16.10;99.90
6333;DHT22;3199;49.102;8.856;2022-10-16T00:26:22;16.20;99.90
6333;DHT22;3199;49.102;8.856;2022-10-16T00:28:49;16.10;99.90
6333;DHT22;3199;49.102;8.856;2022-10-16T00:31:16;16.10;99.90
6333;DHT22;3199;49.102;8.856;2022-10-16T00:33:42;16.10;99.90
6333;DHT22;3199;49.102;8.856;2022-10-16T00:36:10;16.10;99.90
6333;DHT22;3199;49.102;8.856;2022-10-16T00:38:36;16.10;99.90
6333;DHT22;3199;49.102;8.856;2022-10-16T00:41:03;16.10;99.90
6333;DHT22;3199;49.102;8.856;2022-10-16T00:46:17;16.10;99.90
6333;DHT22;3199;49.102;8.856;2022-10-16T00:51:26;16.20;99.90
6333;DHT22;3199;49.102;8.856;2022-10-16T00:53:53;16.20;99.90
6333;DHT22;3199;49.102;8.856;2022-10-16T00:56:19;16.20;99.90
6333;DHT22;3199;49.102;8.856;2022-10-16T00:58:45;16.20;99.90
6333;DHT22;3199;49.102;8.856;2022-10-16T01:01:11;16.20;99.90
6333;DHT22;3199;49.102;8.856;2022-10-16T01:03:37;16.20;99.90
6333;DHT22;3199;49.102;8.856;2022-10-16T01:06:22;16.20;99.90
6333;DHT22;3199;49.102;8.856;2022-10-16T01:09:07;16.30;99.90
6333;DHT22;3199;49.102;8.856;2022-10-16T01:12:01;16.20;99.90
6333;DHT22;3199;49.102;8.856;2022-10-16T01:14:32;16.20;99.90
6333;DHT22;3199;49.102;8.856;2022-10-16T01:17:19;16.20;99.90
6333;DHT22;3199;49.102;8.856;2022-10-16T01:22:13;16.20;99.90
6333;DHT22;3199;49.102;8.856;2022-10-16T01:24:44;16.20;99.90
6333;DHT22;3199;49.102;8.856;2022-10-16T01:27:21;16.20;99.90
6333;DHT22;3199;49.102;8.856;2022-10-16T01:29:54;16.20;99.90
6333;DHT22;3199;49.102;8.856;2022-10-16T01:32:33;16.20;99.90
6333;DHT22;3199;49.102;8.856;2022-10-16T01:35:14;16.20;99.90
6333;DHT22;3199;49.102;8.856;2022-10-16T01:37:54;16.30;99.90
6333;DHT22;3199;49.102;8.856;2022-10-16T01:40:26;16.20;99.90
6333;DHT22;3199;49.102;8.856;2022-10-16T01:43:00;16.30;99.90
6333;DHT22;3199;49.102;8.856;2022-10-16T01:45:29;16.30;99.90
6333;DHT22;3199;49.102;8.856;2022-10-16T01:47:56;16.30;99.90
6333;DHT22;3199;49.102;8.856;2022-10-16T01:50:24;16.30;99.90
6333;DHT22;3199;49.102;8.856;2022-10-16T01:52:52;16.40;99.90
6333;DHT22;3199;49.102;8.856;2022-10-16T01:55:28;16.40;99.90
6333;DHT22;3199;49.102;8.856;2022-10-16T01:57:55;16.40;99.90
6333;DHT22;3199;49.102;8.856;2022-10-16T02:00:23;16.40;99.90
6333;DHT22;3199;49.102;8.856;2022-10-16T02:02:52;16.40;99.90
6333;DHT22;3199;49.102;8.856;2022-10-16T02:05:40;16.40;99.90
6333;DHT22;3199;49.102;8.856;2022-10-16T02:08:07;16.40;99.90
6333;DHT22;3199;49.102;8.856;2022-10-16T02:10:35;16.40;99.90
6333;DHT22;3199;49.102;8.856;2022-10-16T02:13:06;16.40;99.90
6333;DHT22;3199;49.102;8.856;2022-10-16T02:15:32;16.40;99.90
6333;DHT22;3199;49.102;8.856;2022-10-16T02:17:58;16.40;99.90
6333;DHT22;3199;49.102;8.856;2022-10-16T02:20:27;16.40;99.90
6333;DHT22;3199;49.102;8.856;2022-10-16T02:22:54;16.40;99.90
6333;DHT22;3199;49.102;8.856;2022-10-16T02:25:31;16.40;99.90
6333;DHT22;3199;49.102;8.856;2022-10-16T02:28:02;16.40;99.90
6333;DHT22;3199;49.102;8.856;2022-10-16T02:33:09;16.40;99.90
6333;DHT22;3199;49.102;8.856;2022-10-16T02:35:36;16.40;99.90
6333;DHT22;3199;49.102;8.856;2022-10-16T02:38:02;16.40;99.90
6333;DHT22;3199;49.102;8.856;2022-10-16T02:40:28;16.40;99.90
6333;DHT22;3199;49.102;8.856;2022-10-16T02:42:55;16.40;99.90
6333;DHT22;3199;49.102;8.856;2022-10-16T02:45:21;16.40;99.90
6333;DHT22;3199;49.102;8.856;2022-10-16T02:47:47;16.40;99.90
6333;DHT22;3199;49.102;8.856;2022-10-16T02:50:13;16.40;99.90
6333;DHT22;3199;49.102;8.856;2022-10-16T02:52:38;16.40;99.90
6333;DHT22;3199;49.102;8.856;2022-10-16T02:55:04;16.40;99.90
6333;DHT22;3199;49.102;8.856;2022-10-16T02:57:30;16.40;99.90
6333;DHT22;3199;49.102;8.856;2022-10-16T02:59:57;16.40;99.90
6333;DHT22;3199;49.102;8.856;2022-10-16T03:02:23;16.40;99.90
6333;DHT22;3199;49.102;8.856;2022-10-16T03:04:48;16.40;99.90
6333;DHT22;3199;49.102;8.856;2022-10-16T03:07:14;16.40;99.90
6333;DHT22;3199;49.102;8.856;2022-10-16T03:09:39;16.40;99.90
6333;DHT22;3199;49.102;8.856;2022-10-16T03:12:05;16.40;99.90
6333;DHT22;3199;49.102;8.856;2022-10-16T03:14:30;16.30;99.90
6333;DHT22;3199;49.102;8.856;2022-10-16T03:16:56;16.30;99.90
6333;DHT22;3199;49.102;8.856;2022-10-16T03:19:22;16.30;99.90
6333;DHT22;3199;49.102;8.856;2022-10-16T03:21:47;16.30;99.90
6333;DHT22;3199;49.102;8.856;2022-10-16T03:24:13;16.30;99.90
6333;DHT22;3199;49.102;8.856;2022-10-16T03:26:38;16.30;99.90
6333;DHT22;3199;49.102;8.856;2022-10-16T03:29:04;16.30;99.90
6333;DHT22;3199;49.102;8.856;2022-10-16T03:31:30;16.20;99.90
6333;DHT22;3199;49.102;8.856;2022-10-16T03:33:56;16.20;99.90
6333;DHT22;3199;49.102;8.856;2022-10-16T03:36:21;16.20;99.90
6333;DHT22;3199;49.102;8.856;2022-10-16T03:38:47;16.20;99.90
6333;DHT22;3199;49.102;8.856;2022-10-16T03:41:12;16.20;99.90
6333;DHT22;3199;49.102;8.856;2022-10-16T03:43:38;16.20;99.90
6333;DHT22;3199;49.102;8.856;2022-10-16T03:46:04;16.20;99.90
6333;DHT22;3199;49.102;8.856;2022-10-16T03:48:29;16.20;99.90
6333;DHT22;3199;49.102;8.856;2022-10-16T03:50:55;16.20;99.90
6333;DHT22;3199;49.102;8.856;2022-10-16T03:53:21;16.20;99.90
6333;DHT22;3199;49.102;8.856;2022-10-16T03:55:46;16.20;99.90
6333;DHT22;3199;49.102;8.856;2022-10-16T03:58:12;16.20;99.90
6333;DHT22;3199;49.102;8.856;2022-10-16T04:00:45;16.20;99.90
6333;DHT22;3199;49.102;8.856;2022-10-16T04:03:11;16.20;99.90
6333;DHT22;3199;49.102;8.856;2022-10-16T04:05:37;16.20;99.90
6333;DHT22;3199;49.102;8.856;2022-10-16T04:08:03;16.20;99.90
6333;DHT22;3199;49.102;8.856;2022-10-16T04:10:28;16.20;99.90
6333;DHT22;3199;49.102;8.856;2022-10-16T04:12:54;16.20;99.90
6333;DHT22;3199;49.102;8.856;2022-10-16T04:15:21;16.20;99.90
6333;DHT22;3199;49.102;8.856;2022-10-16T04:17:47;16.20;99.90
6333;DHT22;3199;49.102;8.856;2022-10-16T04:20:12;16.10;99.90
6333;DHT22;3199;49.102;8.856;2022-10-16T04:22:38;16.20;99.90
6333;DHT22;3199;49.102;8.856;2022-10-16T04:25:04;16.20;99.90
6333;DHT22;3199;49.102;8.856;2022-10-16T04:27:30;16.10;99.90
6333;DHT22;3199;49.102;8.856;2022-10-16T04:29:57;16.10;99.90
6333;DHT22;3199;49.102;8.856;2022-10-16T04:32:22;16.10;99.90
6333;DHT22;3199;49.102;8.856;2022-10-16T04:34:48;16.10;99.90
6333;DHT22;3199;49.102;8.856;2022-10-16T04:37:13;16.10;99.90
6333;DHT22;3199;49.102;8.856;2022-10-16T04:39:39;16.10;99.90
6333;DHT22;3199;49.102;8.856;2022-10-16T04:42:04;16.00;99.90
6333;DHT22;3199;49.102;8.856;2022-10-16T04:44:30;16.00;99.90
6333;DHT22;3199;49.102;8.856;2022-10-16T04:46:55;16.00;99.90
6333;DHT22;3199;49.102;8.856;2022-10-16T04:49:21;16.00;99.90
6333;DHT22;3199;49.102;8.856;2022-10-16T04:51:46;16.00;99.90
6333;DHT22;3199;49.102;8.856;2022-10-16T04:54:12;16.00;99.90
6333;DHT22;3199;49.102;8.856;2022-10-16T04:56:38;16.00;99.90
6333;DHT22;3199;49.102;8.856;2022-10-16T04:59:12;16.00;99.90
6333;DHT22;3199;49.102;8.856;2022-10-16T05:01:37;16.00;99.90
6333;DHT22;3199;49.102;8.856;2022-10-16T05:04:03;16.00;99.90
6333;DHT22;3199;49.102;8.856;2022-10-16T05:06:29;16.00;99.90
6333;DHT22;3199;49.102;8.856;2022-10-16T05:08:55;16.00;99.90
6333;DHT22;3199;49.102;8.856;2022-10-16T05:11:20;16.00;99.90
6333;DHT22;3199;49.102;8.856;2022-10-16T05:13:46;15.90;99.90
6333;DHT22;3199;49.102;8.856;2022-10-16T05:16:11;15.90;99.90
6333;DHT22;3199;49.102;8.856;2022-10-16T05:18:37;15.90;99.90
6333;DHT22;3199;49.102;8.856;2022-10-16T05:21:02;15.90;99.90
6333;DHT22;3199;49.102;8.856;2022-10-16T05:23:28;15.90;99.90
6333;DHT22;3199;49.102;8.856;2022-10-16T05:25:55;15.90;99.90
6333;DHT22;3199;49.102;8.856;2022-10-16T05:28:23;15.90;99.90
6333;DHT22;3199;49.102;8.856;2022-10-16T05:30:49;15.90;99.90
6333;DHT22;3199;49.102;8.856;2022-10-16T05:33:14;15.90;99.90
6333;DHT22;3199;49.102;8.856;2022-10-16T05:35:40;15.90;99.90
6333;DHT22;3199;49.102;8.856;2022-10-16T05:38:06;15.90;99.90
6333;DHT22;3199;49.102;8.856;2022-10-16T05:40:31;15.90;99.90
6333;DHT22;3199;49.102;8.856;2022-10-16T05:42:57;15.90;99.90
6333;DHT22;3199;49.102;8.856;2022-10-16T05:45:22;15.90;99.90
6333;DHT22;3199;49.102;8.856;2022-10-16T05:47:48;15.80;99.90
6333;DHT22;3199;49.102;8.856;2022-10-16T05:50:13;15.90;99.90
6333;DHT22;3199;49.102;8.856;2022-10-16T05:52:39;15.90;99.90
6333;DHT22;3199;49.102;8.856;2022-10-16T05:55:05;15.90;99.90
6333;DHT22;3199;49.102;8.856;2022-10-16T05:57:30;15.90;99.90
6333;DHT22;3199;49.102;8.856;2022-10-16T05:59:56;15.90;99.90
6333;DHT22;3199;49.102;8.856;2022-10-16T06:02:22;15.90;99.90
6333;DHT22;3199;49.102;8.856;2022-10-16T06:04:47;15.80;99.90
6333;DHT22;3199;49.102;8.856;2022-10-16T06:07:13;15.80;99.90
6333;DHT22;3199;49.102;8.856;2022-10-16T06:09:38;15.80;99.90
6333;DHT22;3199;49.102;8.856;2022-10-16T06:12:04;15.80;99.90
6333;DHT22;3199;49.102;8.856;2022-10-16T06:14:29;15.80;99.90
6333;DHT22;3199;49.102;8.856;2022-10-16T06:16:55;15.70;99.90
6333;DHT22;3199;49.102;8.856;2022-10-16T06:19:20;15.80;99.90
6333;DHT22;3199;49.102;8.856;2022-10-16T06:21:46;15.80;99.90
6333;DHT22;3199;49.102;8.856;2022-10-16T06:24:12;15.80;99.90
6333;DHT22;3199;49.102;8.856;2022-10-16T06:26:37;15.80;99.90
6333;DHT22;3199;49.102;8.856;2022-10-16T06:29:04;15.80;99.90
6333;DHT22;3199;49.102;8.856;2022-10-16T06:31:30;15.80;99.90
6333;DHT22;3199;49.102;8.856;2022-10-16T06:33:58;15.90;99.90
6333;DHT22;3199;49.102;8.856;2022-10-16T06:36:25;15.90;99.90
6333;DHT22;3199;49.102;8.856;2022-10-16T06:38:51;15.90;99.90
6333;DHT22;3199;49.102;8.856;2022-10-16T06:41:19;15.90;99.90
6333;DHT22;3199;49.102;8.856;2022-10-16T06:43:45;16.00;99.90
6333;DHT22;3199;49.102;8.856;2022-10-16T06:46:12;16.00;99.90
6333;DHT22;3199;49.102;8.856;2022-10-16T06:48:38;16.00;99.90
6333;DHT22;3199;49.102;8.856;2022-10-16T06:51:12;16.10;99.90
6333;DHT22;3199;49.102;8.856;2022-10-16T06:53:40;16.10;99.90
6333;DHT22;3199;49.102;8.856;2022-10-16T06:56:11;16.10;99.90
6333;DHT22;3199;49.102;8.856;2022-10-16T06:58:37;16.20;99.90
6333;DHT22;3199;49.102;8.856;2022-10-16T07:01:04;16.10;99.90
6333;DHT22;3199;49.102;8.856;2022-10-16T07:03:29;16.10;99.90
6333;DHT22;3199;49.102;8.856;2022-10-16T07:05:55;16.10;99.90
6333;DHT22;3199;49.102;8.856;2022-10-16T07:08:21;16.10;99.90
6333;DHT22;3199;49.102;8.856;2022-10-16T07:10:47;16.20;99.90
6333;DHT22;3199;49.102;8.856;2022-10-16T07:13:12;16.20;99.90
6333;DHT22;3199;49.102;8.856;2022-10-16T07:15:40;16.20;99.90
6333;DHT22;3199;49.102;8.856;2022-10-16T07:18:05;16.20;99.90
6333;DHT22;3199;49.102;8.856;2022-10-16T07:20:31;16.20;99.90
6333;DHT22;3199;49.102;8.856;2022-10-16T07:22:57;16.20;99.90
6333;DHT22;3199;49.102;8.856;2022-10-16T07:25:22;16.30;99.90
6333;DHT22;3199;49.102;8.856;2022-10-16T07:27:48;16.30;99.90
6333;DHT22;3199;49.102;8.856;2022-10-16T07:30:13;16.50;99.90
6333;DHT22;3199;49.102;8.856;2022-10-16T07:32:39;16.60;99.90
6333;DHT22;3199;49.102;8.856;2022-10-16T07:35:05;16.80;99.90
6333;DHT22;3199;49.102;8.856;2022-10-16T07:37:30;17.00;99.90
6333;DHT22;3199;49.102;8.856;2022-10-16T07:39:56;17.20;99.90
6333;DHT22;3199;49.102;8.856;2022-10-16T07:42:21;17.50;99.90
6333;DHT22;3199;49.102;8.856;2022-10-16T07:44:47;17.70;99.90
6333;DHT22;3199;49.102;8.856;2022-10-16T07:47:12;17.80;99.90
6333;DHT22;3199;49.102;8.856;2022-10-16T07:49:38;17.90;99.90
6333;DHT22;3199;49.102;8.856;2022-10-16T07:52:03;18.10;99.90
6333;DHT22;3199;49.102;8.856;2022-10-16T07:54:29;18.20;99.90
6333;DHT22;3199;49.102;8.856;2022-10-16T07:56:54;18.30;99.90
6333;DHT22;3199;49.102;8.856;2022-10-16T07:59:20;18.50;99.90
6333;DHT22;3199;49.102;8.856;2022-10-16T08:01:46;18.70;99.90
6333;DHT22;3199;49.102;8.856;2022-10-16T08:04:11;18.90;99.90
6333;DHT22;3199;49.102;8.856;2022-10-16T08:06:38;19.10;99.90
6333;DHT22;3199;49.102;8.856;2022-10-16T08:09:05;19.40;99.90
6333;DHT22;3199;49.102;8.856;2022-10-16T08:11:31;19.70;99.90
6333;DHT22;3199;49.102;8.856;2022-10-16T08:13:57;19.80;99.90
6333;DHT22;3199;49.102;8.856;2022-10-16T08:16:22;20.00;99.90
6333;DHT22;3199;49.102;8.856;2022-10-16T08:18:48;20.00;99.90
6333;DHT22;3199;49.102;8.856;2022-10-16T08:21:18;20.20;99.90
6333;DHT22;3199;49.102;8.856;2022-10-16T08:23:45;20.40;99.90
6333;DHT22;3199;49.102;8.856;2022-10-16T08:26:11;20.70;99.90
6333;DHT22;3199;49.102;8.856;2022-10-16T08:28:36;20.90;99.90
6333;DHT22;3199;49.102;8.856;2022-10-16T08:33:31;21.10;99.90
6333;DHT22;3199;49.102;8.856;2022-10-16T08:35:57;21.20;99.90
6333;DHT22;3199;49.102;8.856;2022-10-16T08:38:22;21.40;99.90
6333;DHT22;3199;49.102;8.856;2022-10-16T08:40:48;21.60;99.90
6333;DHT22;3199;49.102;8.856;2022-10-16T08:48:51;22.80;99.90
6333;DHT22;3199;49.102;8.856;2022-10-16T08:51:29;22.90;99.90
6333;DHT22;3199;49.102;8.856;2022-10-16T08:54:02;22.90;99.90
6333;DHT22;3199;49.102;8.856;2022-10-16T08:56:28;23.00;99.90
6333;DHT22;3199;49.102;8.856;2022-10-16T08:58:54;22.90;99.90
6333;DHT22;3199;49.102;8.856;2022-10-16T09:01:22;22.80;99.90
6333;DHT22;3199;49.102;8.856;2022-10-16T09:09:54;23.30;99.90
6333;DHT22;3199;49.102;8.856;2022-10-16T09:15:12;24.00;99.90
6333;DHT22;3199;49.102;8.856;2022-10-16T09:22:45;24.60;99.90
6333;DHT22;3199;49.102;8.856;2022-10-16T09:25:19;24.70;99.90
6333;DHT22;3199;49.102;8.856;2022-10-16T09:27:47;24.80;99.90
6333;DHT22;3199;49.102;8.856;2022-10-16T09:30:19;25.10;99.90
6333;DHT22;3199;49.102;8.856;2022-10-16T09:32:48;25.50;99.90
6333;DHT22;3199;49.102;8.856;2022-10-16T09:35:20;25.50;99.90
6333;DHT22;3199;49.102;8.856;2022-10-16T09:37:49;25.60;99.90
6333;DHT22;3199;49.102;8.856;2022-10-16T09:40:33;25.50;99.00
6333;DHT22;3199;49.102;8.856;2022-10-16T09:43:25;25.40;99.90
6333;DHT22;3199;49.102;8.856;2022-10-16T09:45:59;25.40;99.90
6333;DHT22;3199;49.102;8.856;2022-10-16T09:48:37;25.30;99.50
6333;DHT22;3199;49.102;8.856;2022-10-16T09:51:05;25.10;98.80
6333;DHT22;3199;49.102;8.856;2022-10-16T09:53:41;24.90;98.80
6333;DHT22;3199;49.102;8.856;2022-10-16T09:56:09;24.70;98.90
6333;DHT22;3199;49.102;8.856;2022-10-16T09:58:35;24.50;98.90
6333;DHT22;3199;49.102;8.856;2022-10-16T10:01:01;24.10;98.10
6333;DHT22;3199;49.102;8.856;2022-10-16T10:03:38;23.80;99.20
6333;DHT22;3199;49.102;8.856;2022-10-16T10:06:23;23.60;99.90
6333;DHT22;3199;49.102;8.856;2022-10-16T10:14:17;23.90;99.90
6333;DHT22;3199;49.102;8.856;2022-10-16T10:16:43;24.10;99.70
6333;DHT22;3199;49.102;8.856;2022-10-16T10:19:21;24.30;99.90
6333;DHT22;3199;49.102;8.856;2022-10-16T10:21:48;24.60;99.40
6333;DHT22;3199;49.102;8.856;2022-10-16T10:24:16;24.80;99.20
6333;DHT22;3199;49.102;8.856;2022-10-16T10:26:49;25.10;99.20
6333;DHT22;3199;49.102;8.856;2022-10-16T10:35:11;25.50;97.60
6333;DHT22;3199;49.102;8.856;2022-10-16T10:38:02;25.40;97.20
6333;DHT22;3199;49.102;8.856;2022-10-16T10:40:51;25.20;97.10
6333;DHT22;3199;49.102;8.856;2022-10-16T10:43:30;25.10;97.10
6333;DHT22;3199;49.102;8.856;2022-10-16T10:46:12;25.10;97.00
6333;DHT22;3199;49.102;8.856;2022-10-16T10:57:10;24.90;97.50
6333;DHT22;3199;49.102;8.856;2022-10-16T11:00:03;25.10;97.40
6333;DHT22;3199;49.102;8.856;2022-10-16T11:05:28;24.90;96.40
6333;DHT22;3199;49.102;8.856;2022-10-16T11:08:09;24.70;97.00
6333;DHT22;3199;49.102;8.856;2022-10-16T11:11:00;24.70;97.70
6333;DHT22;3199;49.102;8.856;2022-10-16T11:16:32;25.30;97.30
6333;DHT22;3199;49.102;8.856;2022-10-16T11:19:01;25.40;95.80
6333;DHT22;3199;49.102;8.856;2022-10-16T11:21:30;25.50;96.00
6333;DHT22;3199;49.102;8.856;2022-10-16T11:24:01;25.70;95.60
6333;DHT22;3199;49.102;8.856;2022-10-16T11:26:34;25.70;94.50
6333;DHT22;3199;49.102;8.856;2022-10-16T11:29:02;25.60;94.50
6333;DHT22;3199;49.102;8.856;2022-10-16T11:31:40;25.30;95.40
6333;DHT22;3199;49.102;8.856;2022-10-16T11:34:21;24.80;95.20
6333;DHT22;3199;49.102;8.856;2022-10-16T11:37:01;24.40;95.60
6333;DHT22;3199;49.102;8.856;2022-10-16T11:39:29;24.10;96.60
6333;DHT22;3199;49.102;8.856;2022-10-16T11:44:42;24.00;97.00
6333;DHT22;3199;49.102;8.856;2022-10-16T11:47:33;23.80;96.50
6333;DHT22;3199;49.102;8.856;2022-10-16T11:55:20;23.90;98.00
6333;DHT22;3199;49.102;8.856;2022-10-16T11:57:51;24.20;98.20
6333;DHT22;3199;49.102;8.856;2022-10-16T12:00:28;24.50;97.40
6333;DHT22;3199;49.102;8.856;2022-10-16T12:08:26;24.80;96.60
6333;DHT22;3199;49.102;8.856;2022-10-16T12:10:52;24.90;96.60
6333;DHT22;3199;49.102;8.856;2022-10-16T12:13:30;24.90;95.90
6333;DHT22;3199;49.102;8.856;2022-10-16T12:18:38;24.90;96.30
6333;DHT22;3199;49.102;8.856;2022-10-16T12:21:03;24.90;96.60
6333;DHT22;3199;49.102;8.856;2022-10-16T12:23:37;24.80;95.60
6333;DHT22;3199;49.102;8.856;2022-10-16T12:26:04;24.70;96.50
6333;DHT22;3199;49.102;8.856;2022-10-16T12:28:31;24.80;96.60
6333;DHT22;3199;49.102;8.856;2022-10-16T12:31:03;24.90;95.80
6333;DHT22;3199;49.102;8.856;2022-10-16T12:33:33;24.90;95.80
6333;DHT22;3199;49.102;8.856;2022-10-16T12:36:02;24.90;94.60
6333;DHT22;3199;49.102;8.856;2022-10-16T12:38:35;24.70;95.20
6333;DHT22;3199;49.102;8.856;2022-10-16T12:41:03;24.70;96.20
6333;DHT22;3199;49.102;8.856;2022-10-16T12:46:03;24.90;95.70
6333;DHT22;3199;49.102;8.856;2022-10-16T12:48:30;24.90;95.50
6333;DHT22;3199;49.102;8.856;2022-10-16T12:50:56;24.70;95.90
6333;DHT22;3199;49.102;8.856;2022-10-16T12:53:25;24.60;96.00
6333;DHT22;3199;49.102;8.856;2022-10-16T13:01:33;24.70;96.10
6333;DHT22;3199;49.102;8.856;2022-10-16T13:04:10;24.80;96.00
6333;DHT22;3199;49.102;8.856;2022-10-16T13:07:02;24.70;95.80
6333;DHT22;3199;49.102;8.856;2022-10-16T13:14:58;24.50;96.10
6333;DHT22;3199;49.102;8.856;2022-10-16T13:20:32;24.60;96.90
6333;DHT22;3199;49.102;8.856;2022-10-16T13:23:23;24.60;96.50
6333;DHT22;3199;49.102;8.856;2022-10-16T13:28:35;24.60;96.60
6333;DHT22;3199;49.102;8.856;2022-10-16T13:31:03;24.50;96.30
6333;DHT22;3199;49.102;8.856;2022-10-16T13:33:35;24.50;96.30
6333;DHT22;3199;49.102;8.856;2022-10-16T13:36:02;24.40;96.40
6333;DHT22;3199;49.102;8.856;2022-10-16T13:38:31;24.40;96.80
6333;DHT22;3199;49.102;8.856;2022-10-16T13:41:02;24.20;97.00
6333;DHT22;3199;49.102;8.856;2022-10-16T13:46:12;23.80;96.50
6333;DHT22;3199;49.102;8.856;2022-10-16T13:48:37;23.60;97.00
6333;DHT22;3199;49.102;8.856;2022-10-16T13:51:17;23.40;97.40
6333;DHT22;3199;49.102;8.856;2022-10-16T13:53:44;23.30;97.80
6333;DHT22;3199;49.102;8.856;2022-10-16T13:56:21;23.20;97.70
6333;DHT22;3199;49.102;8.856;2022-10-16T13:59:01;23.20;97.60
6333;DHT22;3199;49.102;8.856;2022-10-16T14:01:29;23.20;97.80
6333;DHT22;3199;49.102;8.856;2022-10-16T14:04:04;23.30;98.10
6333;DHT22;3199;49.102;8.856;2022-10-16T14:06:31;23.40;97.60
6333;DHT22;3199;49.102;8.856;2022-10-16T14:09:24;23.50;98.00
6333;DHT22;3199;49.102;8.856;2022-10-16T14:12:08;23.50;98.40
6333;DHT22;3199;49.102;8.856;2022-10-16T14:14:48;23.60;98.40
6333;DHT22;3199;49.102;8.856;2022-10-16T14:17:33;23.60;98.50
6333;DHT22;3199;49.102;8.856;2022-10-16T14:20:01;23.60;98.70
6333;DHT22;3199;49.102;8.856;2022-10-16T14:22:34;23.50;98.50
6333;DHT22;3199;49.102;8.856;2022-10-16T14:25:02;23.50;98.80
6333;DHT22;3199;49.102;8.856;2022-10-16T14:32:34;23.30;99.50
6333;DHT22;3199;49.102;8.856;2022-10-16T14:34:59;23.30;99.90
6333;DHT22;3199;49.102;8.856;2022-10-16T14:37:29;23.30;99.90
6333;DHT22;3199;49.102;8.856;2022-10-16T14:39:56;23.30;99.90
6333;DHT22;3199;49.102;8.856;2022-10-16T14:42:24;23.20;99.90
6333;DHT22;3199;49.102;8.856;2022-10-16T14:44:54;23.10;99.90
6333;DHT22;3199;49.102;8.856;2022-10-16T14:47:22;23.10;99.90
6333;DHT22;3199;49.102;8.856;2022-10-16T14:49:51;23.00;99.90
6333;DHT22;3199;49.102;8.856;2022-10-16T14:52:17;23.00;99.90
6333;DHT22;3199;49.102;8.856;2022-10-16T14:54:42;23.00;99.90
6333;DHT22;3199;49.102;8.856;2022-10-16T14:57:23;23.00;99.90
6333;DHT22;3199;49.102;8.856;2022-10-16T14:59:49;23.00;99.90
6333;DHT22;3199;49.102;8.856;2022-10-16T15:04:43;22.90;99.90
6333;DHT22;3199;49.102;8.856;2022-10-16T15:07:08;22.80;99.90
6333;DHT22;3199;49.102;8.856;2022-10-16T15:09:34;22.80;99.90
6333;DHT22;3199;49.102;8.856;2022-10-16T15:12:00;22.70;99.90
6333;DHT22;3199;49.102;8.856;2022-10-16T15:14:25;22.60;99.90
6333;DHT22;3199;49.102;8.856;2022-10-16T15:16:51;22.60;99.90
6333;DHT22;3199;49.102;8.856;2022-10-16T15:19:16;22.50;99.90
6333;DHT22;3199;49.102;8.856;2022-10-16T15:21:42;22.40;99.90
6333;DHT22;3199;49.102;8.856;2022-10-16T15:24:11;22.40;99.90
6333;DHT22;3199;49.102;8.856;2022-10-16T15:26:37;22.30;99.90
6333;DHT22;3199;49.102;8.856;2022-10-16T15:29:03;22.30;99.90
6333;DHT22;3199;49.102;8.856;2022-10-16T15:31:28;22.20;99.90
6333;DHT22;3199;49.102;8.856;2022-10-16T15:33:54;22.20;99.90
6333;DHT22;3199;49.102;8.856;2022-10-16T15:36:28;22.10;99.90
6333;DHT22;3199;49.102;8.856;2022-10-16T15:38:54;22.10;99.90
6333;DHT22;3199;49.102;8.856;2022-10-16T15:41:20;22.00;99.90
6333;DHT22;3199;49.102;8.856;2022-10-16T15:43:48;22.00;99.90
6333;DHT22;3199;49.102;8.856;2022-10-16T15:46:15;22.00;99.90
6333;DHT22;3199;49.102;8.856;2022-10-16T15:48:42;21.90;99.90
6333;DHT22;3199;49.102;8.856;2022-10-16T15:51:09;22.00;99.90
6333;DHT22;3199;49.102;8.856;2022-10-16T15:53:35;21.90;99.90
6333;DHT22;3199;49.102;8.856;2022-10-16T15:56:05;21.80;99.90
6333;DHT22;3199;49.102;8.856;2022-10-16T15:58:31;21.80;99.90
6333;DHT22;3199;49.102;8.856;2022-10-16T16:00:58;21.70;99.90
6333;DHT22;3199;49.102;8.856;2022-10-16T16:03:26;21.60;99.90
6333;DHT22;3199;49.102;8.856;2022-10-16T16:05:52;21.50;99.90
6333;DHT22;3199;49.102;8.856;2022-10-16T16:08:18;21.50;99.90
6333;DHT22;3199;49.102;8.856;2022-10-16T16:10:44;21.40;99.90
6333;DHT22;3199;49.102;8.856;2022-10-16T16:13:10;21.30;99.90
6333;DHT22;3199;49.102;8.856;2022-10-16T16:15:39;21.30;99.90
6333;DHT22;3199;49.102;8.856;2022-10-16T16:18:06;21.20;99.90
6333;DHT22;3199;49.102;8.856;2022-10-16T16:20:31;21.10;99.90
6333;DHT22;3199;49.102;8.856;2022-10-16T16:22:57;21.10;99.90
6333;DHT22;3199;49.102;8.856;2022-10-16T16:25:23;21.00;99.90
6333;DHT22;3199;49.102;8.856;2022-10-16T16:27:48;20.90;99.90
6333;DHT22;3199;49.102;8.856;2022-10-16T16:30:14;20.80;99.90
6333;DHT22;3199;49.102;8.856;2022-10-16T16:32:39;20.70;99.90
6333;DHT22;3199;49.102;8.856;2022-10-16T16:35:05;20.60;99.90
6333;DHT22;3199;49.102;8.856;2022-10-16T16:37:31;20.50;99.90
6333;DHT22;3199;49.102;8.856;2022-10-16T16:39:57;20.50;99.90
6333;DHT22;3199;49.102;8.856;2022-10-16T16:42:26;20.40;99.90
6333;DHT22;3199;49.102;8.856;2022-10-16T16:44:52;20.30;99.90
6333;DHT22;3199;49.102;8.856;2022-10-16T16:47:18;20.20;99.90
6333;DHT22;3199;49.102;8.856;2022-10-16T16:49:43;20.10;99.90
6333;DHT22;3199;49.102;8.856;2022-10-16T16:52:09;20.00;99.90
6333;DHT22;3199;49.102;8.856;2022-10-16T16:54:34;19.90;99.90
6333;DHT22;3199;49.102;8.856;2022-10-16T16:57:00;19.80;99.90
6333;DHT22;3199;49.102;8.856;2022-10-16T16:59:25;19.70;99.90
6333;DHT22;3199;49.102;8.856;2022-10-16T17:01:51;19.60;99.90
6333;DHT22;3199;49.102;8.856;2022-10-16T17:04:17;19.60;99.90
6333;DHT22;3199;49.102;8.856;2022-10-16T17:06:44;19.40;99.90
6333;DHT22;3199;49.102;8.856;2022-10-16T17:09:10;19.30;99.90
6333;DHT22;3199;49.102;8.856;2022-10-16T17:11:40;19.30;99.90
6333;DHT22;3199;49.102;8.856;2022-10-16T17:14:08;19.20;99.90
6333;DHT22;3199;49.102;8.856;2022-10-16T17:16:36;19.20;99.90
6333;DHT22;3199;49.102;8.856;2022-10-16T17:19:04;19.10;99.90
6333;DHT22;3199;49.102;8.856;2022-10-16T17:21:30;19.20;99.90
6333;DHT22;3199;49.102;8.856;2022-10-16T17:23:57;19.20;99.90
6333;DHT22;3199;49.102;8.856;2022-10-16T17:26:23;19.30;99.90
6333;DHT22;3199;49.102;8.856;2022-10-16T17:28:53;19.30;99.90
6333;DHT22;3199;49.102;8.856;2022-10-16T17:31:22;19.30;99.90
6333;DHT22;3199;49.102;8.856;2022-10-16T17:33:48;19.30;99.90
6333;DHT22;3199;49.102;8.856;2022-10-16T17:36:14;19.10;99.90
6333;DHT22;3199;49.102;8.856;2022-10-16T17:38:40;19.00;99.90
6333;DHT22;3199;49.102;8.856;2022-10-16T17:41:17;18.80;99.90
6333;DHT22;3199;49.102;8.856;2022-10-16T17:43:43;18.70;99.90
6333;DHT22;3199;49.102;8.856;2022-10-16T17:46:10;18.60;99.90
6333;DHT22;3199;49.102;8.856;2022-10-16T17:48:40;18.50;99.90
6333;DHT22;3199;49.102;8.856;2022-10-16T17:51:07;18.30;99.90
6333;DHT22;3199;49.102;8.856;2022-10-16T17:53:34;18.20;99.90
6333;DHT22;3199;49.102;8.856;2022-10-16T17:56:08;18.10;99.90